Time;durP1;ratioP1;P1;durP2;ratioP2;P2;SDS_P1;SDS_P2;PMS_P1;PMS_P2;Temp;Humidity;BMP_temperature;BMP_pressure;BME280_temperature;BME280_humidity;BME280_pressure;Samples;Min_cycle;Max_cycle;Signal;HPM_P1;HPM_P2
2021/10/14 00:01:08;;;;;;;39.92;24.00;;;;;;;12.98;100.00;99336.23;1697776;84;21219;-75
2021/10/14 00:04:13;;;;;;;42.27;24.75;;;;;;;12.98;100.00;99333.49;1676353;84;21857;-75
2021/10/14 00:07:20;;;;;;;41.60;25.05;;;;;;;12.99;100.00;99335.73;1698529;84;21320;-75
2021/10/14 00:10:25;;;;;;;36.42;21.55;;;;;;;12.99;100.00;99341.23;1698400;84;21333;-75
2021/10/14 00:13:32;;;;;;;43.90;23.57;;;;;;;12.98;100.00;99343.10;1698442;84;21373;-75
2021/10/14 00:16:37;;;;;;;43.02;24.90;;;;;;;12.97;100.00;99354.30;1697805;84;21344;-75
2021/10/14 00:19:43;;;;;;;40.83;23.32;;;;;;;12.95;100.00;99349.05;1698278;84;21326;-75
2021/10/14 00:22:48;;;;;;;48.73;24.18;;;;;;;12.92;100.00;99349.45;1697122;84;21235;-75
2021/10/14 00:25:54;;;;;;;50.70;24.57;;;;;;;12.90;100.00;99351.59;1697111;84;21210;-75
2021/10/14 00:29:00;;;;;;;45.90;24.20;;;;;;;12.89;100.00;99354.03;1698385;84;21309;-75
2021/10/14 00:32:06;;;;;;;41.98;24.72;;;;;;;12.92;100.00;99354.95;1696567;84;21349;-75
2021/10/14 00:35:12;;;;;;;40.23;23.20;;;;;;;12.93;100.00;99356.62;1697173;84;21337;-75
2021/10/14 00:38:19;;;;;;;32.58;22.05;;;;;;;12.94;100.00;99358.88;1696037;84;21333;-75
2021/10/14 00:41:25;;;;;;;36.90;20.72;;;;;;;12.93;100.00;99362.12;1697382;84;21282;-75
2021/10/14 00:44:31;;;;;;;34.85;21.90;;;;;;;12.92;100.00;99368.67;1697346;84;21850;-75
2021/10/14 00:47:38;;;;;;;34.20;19.77;;;;;;;12.93;100.00;99374.47;1696442;84;21345;-75
2021/10/14 00:50:43;;;;;;;33.18;18.90;;;;;;;12.94;100.00;99372.06;1697434;84;21313;-75
2021/10/14 00:53:49;;;;;;;34.78;21.05;;;;;;;12.97;100.00;99379.01;1697443;84;21880;-75
2021/10/14 00:56:54;;;;;;;30.30;18.57;;;;;;;13.01;100.00;99388.51;1697381;84;21306;-75
2021/10/14 01:00:01;;;;;;;24.60;13.60;;;;;;;13.03;100.00;99398.23;1697354;84;21251;-75
2021/10/14 01:03:07;;;;;;;20.60;13.70;;;;;;;13.04;100.00;99394.42;1696257;84;22597;-75
2021/10/14 01:06:12;;;;;;;20.10;15.48;;;;;;;12.95;100.00;99400.35;1697422;84;21730;-75
2021/10/14 01:09:17;;;;;;;19.92;14.55;;;;;;;12.76;100.00;99411.67;1697506;84;21306;-75
2021/10/14 01:12:24;;;;;;;16.40;12.30;;;;;;;12.57;100.00;99416.64;1679331;84;21599;-75
2021/10/14 01:15:32;;;;;;;18.42;13.93;;;;;;;12.38;100.00;99427.92;1697260;84;21746;-75
2021/10/14 01:18:37;;;;;;;20.70;14.70;;;;;;;12.22;100.00;99438.73;1695977;84;21377;-75
2021/10/14 01:21:43;;;;;;;18.40;13.32;;;;;;;12.02;100.00;99442.81;1697312;84;21936;-75
2021/10/14 01:24:48;;;;;;;20.95;14.98;;;;;;;11.81;100.00;99443.78;1697147;84;21377;-75
2021/10/14 01:27:56;;;;;;;19.73;12.35;;;;;;;11.63;100.00;99452.55;1697409;84;21853;-75
2021/10/14 01:31:02;;;;;;;18.37;12.80;;;;;;;11.42;100.00;99460.86;1695683;84;21349;-75
2021/10/14 01:34:08;;;;;;;19.50;11.80;;;;;;;11.23;100.00;99469.28;1696153;84;21401;-75
2021/10/14 01:37:06;;;;;;;13.58;10.25;;;;;;;11.04;100.00;99482.30;1697475;84;21750;-75
2021/10/14 01:40:12;;;;;;;13.75;9.80;;;;;;;10.91;100.00;99490.73;1697555;84;21317;-75
2021/10/14 01:43:22;;;;;;;12.75;8.80;;;;;;;10.78;100.00;99489.80;1696735;84;21798;-75
2021/10/14 01:46:27;;;;;;;12.53;7.90;;;;;;;10.66;100.00;99505.88;1697746;84;21321;-75
2021/10/14 01:49:32;;;;;;;13.55;9.35;;;;;;;10.54;100.00;99510.17;1695716;84;21215;-75
2021/10/14 01:52:36;;;;;;;19.00;11.40;;;;;;;10.43;100.00;99516.48;1697121;84;21262;-75
2021/10/14 01:55:42;;;;;;;20.30;11.53;;;;;;;10.32;100.00;99522.48;1697469;84;21825;-75
2021/10/14 01:58:48;;;;;;;16.25;10.30;;;;;;;10.23;100.00;99527.19;1697242;84;21770;-75
2021/10/14 02:01:55;;;;;;;15.30;8.88;;;;;;;10.19;100.00;99526.40;1696076;84;21230;-75
2021/10/14 02:05:00;;;;;;;10.68;7.85;;;;;;;10.14;100.00;99534.33;1697479;84;21853;-75
2021/10/14 02:08:07;;;;;;;6.53;4.97;;;;;;;10.05;100.00;99543.67;1696048;84;21271;-75
2021/10/14 02:11:14;;;;;;;7.53;4.35;;;;;;;9.96;100.00;99542.41;1697322;84;21345;-75
2021/10/14 02:14:21;;;;;;;7.67;4.58;;;;;;;9.89;100.00;99554.31;1696315;84;21425;-75
2021/10/14 02:17:26;;;;;;;6.40;3.98;;;;;;;9.85;100.00;99568.86;1697415;84;21219;-75
2021/10/14 02:20:31;;;;;;;5.78;3.42;;;;;;;9.82;100.00;99576.05;1697568;84;21309;-75
2021/10/14 02:23:36;;;;;;;2.87;2.30;;;;;;;9.77;100.00;99573.05;1696964;84;21774;-75
2021/10/14 02:26:43;;;;;;;5.15;2.87;;;;;;;9.70;100.00;99574.86;1697370;84;21321;-75
2021/10/14 02:29:48;;;;;;;4.75;2.62;;;;;;;9.66;100.00;99585.82;1697121;84;21357;-74
2021/10/14 02:32:54;;;;;;;5.50;3.20;;;;;;;9.62;100.00;99599.52;1696365;83;21152;-74
2021/10/14 02:35:59;;;;;;;4.33;2.70;;;;;;;9.59;100.00;99608.91;1696088;84;21310;-74
2021/10/14 02:39:05;;;;;;;3.45;2.47;;;;;;;9.56;100.00;99619.38;1696114;84;21738;-74
2021/10/14 02:42:10;;;;;;;2.52;1.47;;;;;;;9.51;100.00;99625.92;1697489;84;21321;-74
2021/10/14 02:45:16;;;;;;;2.10;1.90;;;;;;;9.49;100.00;99630.18;1697325;84;21373;-75
2021/10/14 02:48:21;;;;;;;3.25;1.60;;;;;;;9.48;100.00;99633.43;1697248;84;21348;-75
2021/10/14 02:51:26;;;;;;;2.35;1.80;;;;;;;9.46;100.00;99635.52;1697417;84;21369;-75
2021/10/14 02:54:32;;;;;;;3.37;1.45;;;;;;;9.41;100.00;99644.78;1696612;84;21330;-75
2021/10/14 02:57:37;;;;;;;1.80;1.47;;;;;;;9.39;100.00;99658.27;1697424;84;21380;-75
2021/10/14 03:00:43;;;;;;;2.83;1.47;;;;;;;9.38;100.00;99668.86;1696994;84;21278;-75
2021/10/14 03:03:48;;;;;;;1.40;1.30;;;;;;;9.39;100.00;99676.00;1696991;84;21928;-75
2021/10/14 03:06:54;;;;;;;4.20;1.50;;;;;;;9.40;100.00;99693.55;1696026;84;22551;-75
2021/10/14 03:10:00;;;;;;;3.45;1.35;;;;;;;9.39;100.00;99703.30;1697383;84;21310;-75
2021/10/14 03:13:07;;;;;;;1.42;1.32;;;;;;;9.39;100.00;99700.05;1697477;84;21330;-75
2021/10/14 03:16:13;;;;;;;1.60;1.47;;;;;;;9.41;100.00;99710.77;1697383;84;21314;-75
2021/10/14 03:19:18;;;;;;;1.52;1.25;;;;;;;9.41;100.00;99721.20;1696907;84;21373;-75
2021/10/14 03:22:23;;;;;;;2.00;1.42;;;;;;;9.39;100.00;99721.89;1697457;84;21215;-75
2021/10/14 03:25:29;;;;;;;3.08;2.08;;;;;;;9.40;100.00;99728.19;1696342;84;21405;-75
2021/10/14 03:28:35;;;;;;;2.22;1.60;;;;;;;9.37;100.00;99742.23;1697471;84;21775;-75
2021/10/14 03:31:41;;;;;;;2.08;1.85;;;;;;;9.35;100.00;99741.54;1697485;84;21833;-75
2021/10/14 03:34:49;;;;;;;1.67;1.57;;;;;;;9.35;100.00;99746.48;1695946;84;21346;-75
2021/10/14 03:37:55;;;;;;;3.15;2.08;;;;;;;9.33;100.00;99747.19;1697410;84;21318;-75
2021/10/14 03:41:01;;;;;;;2.92;2.10;;;;;;;9.31;100.00;99747.88;1697365;84;21302;-75
2021/10/14 03:44:07;;;;;;;3.27;2.10;;;;;;;9.29;100.00;99749.95;1697295;84;21239;-75
2021/10/14 03:47:12;;;;;;;3.52;2.87;;;;;;;9.29;100.00;99760.86;1697344;84;21833;-75
2021/10/14 03:50:18;;;;;;;3.62;2.50;;;;;;;9.25;100.00;99777.26;1696657;84;21283;-75
2021/10/14 03:53:23;;;;;;;3.25;2.92;;;;;;;9.22;100.00;99787.16;1697390;84;21894;-75
2021/10/14 03:56:29;;;;;;;3.35;3.00;;;;;;;9.21;100.00;99797.75;1697387;84;21314;-75
2021/10/14 03:59:34;;;;;;;3.17;2.67;;;;;;;9.21;100.00;99804.57;1696009;84;21251;-75
2021/10/14 04:02:40;;;;;;;4.08;3.00;;;;;;;9.19;100.00;99809.38;1697429;84;21333;-75
2021/10/14 04:05:46;;;;;;;3.90;3.25;;;;;;;9.18;100.00;99815.35;1696419;84;21364;-75
2021/10/14 04:08:52;;;;;;;3.62;2.98;;;;;;;9.19;100.00;99823.02;1697171;84;21320;-74
2021/10/14 04:11:58;;;;;;;4.62;3.60;;;;;;;9.19;100.00;99835.30;1697344;84;21338;-75
2021/10/14 04:15:04;;;;;;;3.77;3.22;;;;;;;9.19;99.71;99842.12;1696873;84;21219;-75
2021/10/14 04:18:10;;;;;;;4.10;3.60;;;;;;;9.20;99.34;99842.45;1697421;84;21204;-75
2021/10/14 04:21:15;;;;;;;5.65;3.80;;;;;;;9.18;99.08;99864.98;1696310;84;21972;-75
2021/10/14 04:24:20;;;;;;;5.00;3.92;;;;;;;9.17;98.97;99867.34;1696134;84;21902;-75
2021/10/14 04:27:25;;;;;;;4.42;4.00;;;;;;;9.13;98.50;99866.88;1696001;84;21227;-75
2021/10/14 04:30:33;;;;;;;6.33;4.87;;;;;;;9.08;97.87;99882.05;1697419;84;21203;-75
2021/10/14 04:33:38;;;;;;;6.08;4.60;;;;;;;9.01;97.40;99861.98;1697397;84;21845;-75
2021/10/14 04:36:45;;;;;;;6.55;4.50;;;;;;;8.99;97.37;99879.02;1696143;84;21250;-75
2021/10/14 04:39:51;;;;;;;6.17;4.62;;;;;;;8.96;97.78;99881.09;1697413;84;21317;-74
2021/10/14 04:42:56;;;;;;;5.78;4.42;;;;;;;8.96;97.86;99890.64;1697342;84;21321;-75
2021/10/14 04:46:02;;;;;;;7.10;5.50;;;;;;;8.96;97.83;99902.91;1696748;84;22524;-75
2021/10/14 04:49:09;;;;;;;5.83;5.05;;;;;;;8.96;97.55;99908.38;1696025;84;21271;-75
2021/10/14 04:52:14;;;;;;;14.28;6.03;;;;;;;8.96;97.19;99922.01;1695985;84;21345;-75
2021/10/14 04:55:19;;;;;;;6.25;5.08;;;;;;;8.98;97.03;99924.55;1696047;84;21917;-75
2021/10/14 04:58:26;;;;;;;6.97;5.85;;;;;;;8.99;96.78;99940.41;1695998;84;21318;-75
2021/10/14 05:01:32;;;;;;;5.40;4.25;;;;;;;9.00;96.56;99947.07;1695961;84;21231;-75
2021/10/14 05:04:37;;;;;;;5.28;4.25;;;;;;;9.02;96.63;99961.37;1697378;84;21317;-75
2021/10/14 05:07:43;;;;;;;9.60;5.10;;;;;;;9.04;96.59;99960.70;1697442;84;21207;-75
2021/10/14 05:10:49;;;;;;;7.83;5.45;;;;;;;9.06;96.36;99976.89;1697466;84;21305;-74
2021/10/14 05:13:56;;;;;;;6.97;5.12;;;;;;;9.06;96.03;99979.61;1697175;84;21860;-74
2021/10/14 05:17:01;;;;;;;6.47;4.80;;;;;;;9.06;96.01;99991.89;1696304;84;21365;-74
2021/10/14 05:20:08;;;;;;;6.67;5.20;;;;;;;9.09;95.89;100012.02;1697338;84;21199;-74
2021/10/14 05:23:14;;;;;;;6.45;4.78;;;;;;;9.10;95.87;100020.02;1697320;84;21321;-75
2021/10/14 05:26:19;;;;;;;7.40;5.60;;;;;;;9.12;95.79;100019.31;1696775;84;21354;-75
2021/10/14 05:29:25;;;;;;;8.33;5.20;;;;;;;9.13;95.62;100027.02;1697245;84;21313;-74
2021/10/14 05:32:32;;;;;;;7.67;5.60;;;;;;;9.16;95.58;100040.30;1696075;84;21306;-75
2021/10/14 05:35:38;;;;;;;8.50;5.65;;;;;;;9.18;95.44;100050.54;1700496;83;21218;-75
2021/10/14 05:38:43;;;;;;;7.87;5.65;;;;;;;9.19;95.13;100047.63;1718147;83;21959;-75
2021/10/14 05:41:48;;;;;;;8.78;6.47;;;;;;;9.22;94.88;100057.33;1718110;83;21242;-75
2021/10/14 05:44:53;;;;;;;8.43;6.03;;;;;;;9.24;94.57;100061.27;1718224;83;21317;-75
2021/10/14 05:47:59;;;;;;;10.38;7.25;;;;;;;9.27;94.41;100067.72;1718190;83;21372;-75
2021/10/14 05:51:05;;;;;;;10.28;7.42;;;;;;;9.31;94.34;100076.75;1718001;83;21198;-75
2021/10/14 05:54:11;;;;;;;8.63;6.70;;;;;;;9.32;94.08;100084.46;1718082;83;21932;-75
2021/10/14 05:57:17;;;;;;;10.15;7.08;;;;;;;9.34;93.95;100089.22;1717298;83;21321;-75
2021/10/14 06:00:24;;;;;;;8.93;6.78;;;;;;;9.38;93.74;100093.31;1717919;83;21265;-75
2021/10/14 06:03:29;;;;;;;11.90;8.38;;;;;;;9.41;93.39;100098.40;1717928;83;21324;-76
2021/10/14 06:06:35;;;;;;;9.55;6.85;;;;;;;9.44;93.15;100105.73;1717754;83;21904;-75
2021/10/14 06:09:41;;;;;;;8.73;7.35;;;;;;;9.50;92.95;100109.64;1718172;83;21242;-75
2021/10/14 06:12:46;;;;;;;9.38;7.10;;;;;;;9.54;92.75;100112.37;1718182;83;21313;-75
2021/10/14 06:15:52;;;;;;;15.05;8.48;;;;;;;9.59;92.38;100114.58;1718288;83;22002;-75
2021/10/14 06:18:57;;;;;;;12.68;8.38;;;;;;;9.61;92.28;100116.64;1718009;83;21331;-75
2021/10/14 06:22:04;;;;;;;10.72;8.58;;;;;;;9.64;92.11;100123.09;1716772;82;21181;-76
2021/10/14 06:25:11;;;;;;;11.43;8.50;;;;;;;9.66;91.56;100142.91;1717031;83;21265;-76
2021/10/14 06:28:16;;;;;;;12.63;9.40;;;;;;;9.68;91.31;100138.95;1716890;83;21349;-77
2021/10/14 06:31:22;;;;;;;12.15;8.88;;;;;;;9.69;90.45;100128.39;1717061;83;21738;-75
2021/10/14 06:34:28;;;;;;;14.58;9.80;;;;;;;9.71;90.05;100140.50;1718201;83;21317;-74
2021/10/14 06:37:33;;;;;;;14.05;10.63;;;;;;;9.73;89.77;100139.28;1716037;83;21217;-74
2021/10/14 06:40:39;;;;;;;12.98;9.68;;;;;;;9.73;89.88;100142.53;1718211;83;21373;-74
2021/10/14 06:43:43;;;;;;;15.35;10.78;;;;;;;9.76;89.41;100151.75;1718152;83;21202;-74
2021/10/14 06:46:49;;;;;;;14.70;10.00;;;;;;;9.71;88.89;100158.25;1718110;83;21348;-75
2021/10/14 06:49:55;;;;;;;16.25;11.90;;;;;;;9.63;88.95;100167.30;1718226;83;21345;-74
2021/10/14 06:53:01;;;;;;;15.63;10.98;;;;;;;9.59;89.20;100178.75;1717619;83;21364;-75
2021/10/14 06:56:07;;;;;;;17.20;12.58;;;;;;;9.56;89.26;100182.69;1718139;83;21352;-74
2021/10/14 06:59:13;;;;;;;14.00;11.60;;;;;;;9.56;89.01;100188.16;1718236;83;21313;-74
2021/10/14 07:02:19;;;;;;;17.50;13.05;;;;;;;9.52;88.45;100203.69;1716732;83;21269;-74
2021/10/14 07:05:25;;;;;;;18.48;12.30;;;;;;;9.45;88.97;100208.45;1716893;83;21343;-74
2021/10/14 07:08:30;;;;;;;16.87;12.18;;;;;;;9.40;89.12;100206.75;1716587;83;21336;-75
2021/10/14 07:11:42;;;;;;;18.10;12.05;;;;;;;9.40;89.53;100219.55;1716644;83;21214;-76
2021/10/14 07:14:47;;;;;;;20.75;13.93;;;;;;;9.38;89.49;100225.19;1716791;83;21404;-74
2021/10/14 07:17:53;;;;;;;17.67;11.90;;;;;;;9.39;89.36;100223.31;1716717;83;21325;-74
2021/10/14 07:21:01;;;;;;;19.82;12.65;;;;;;;9.39;89.21;100236.95;1716860;83;21316;-74
2021/10/14 07:24:06;;;;;;;16.12;12.28;;;;;;;9.40;89.08;100256.41;1717402;83;21372;-75
2021/10/14 07:27:12;;;;;;;15.72;11.50;;;;;;;9.38;88.77;100260.67;1718046;83;21246;-75
2021/10/14 07:30:18;;;;;;;19.07;12.85;;;;;;;9.38;88.74;100257.95;1718125;83;21321;-75
2021/10/14 07:33:23;;;;;;;19.80;12.28;;;;;;;9.37;88.66;100258.13;1716920;83;21218;-75
2021/10/14 07:36:29;;;;;;;18.87;11.68;;;;;;;9.40;88.78;100262.71;1716810;83;21336;-75
2021/10/14 07:39:35;;;;;;;18.37;11.40;;;;;;;9.45;88.66;100268.52;1716471;83;21875;-75
2021/10/14 07:42:40;;;;;;;15.25;11.33;;;;;;;9.47;88.05;100270.58;1716910;83;21328;-74
2021/10/14 07:45:47;;;;;;;14.95;11.85;;;;;;;9.48;87.57;100275.01;1716899;82;21205;-75
2021/10/14 07:48:52;;;;;;;14.75;11.33;;;;;;;9.46;87.17;100278.95;1717506;83;21892;-75
2021/10/14 07:51:57;;;;;;;13.60;10.58;;;;;;;9.44;87.16;100283.70;1718097;83;21900;-75
2021/10/14 07:55:03;;;;;;;17.55;10.68;;;;;;;9.47;87.25;100296.52;1716903;83;21364;-75
2021/10/14 07:58:08;;;;;;;17.10;11.95;;;;;;;9.51;86.70;100296.19;1717950;83;21312;-75
2021/10/14 08:01:14;;;;;;;14.98;11.50;;;;;;;9.51;86.04;100290.73;1717316;83;21356;-75
2021/10/14 08:04:21;;;;;;;16.90;12.35;;;;;;;9.48;85.57;100299.58;1697913;83;21328;-75
2021/10/14 08:07:27;;;;;;;15.70;11.12;;;;;;;9.48;85.53;100313.23;1721076;82;21181;-75
2021/10/14 08:10:31;;;;;;;15.28;10.78;;;;;;;9.51;85.55;100322.13;1728359;82;21875;-75
2021/10/14 08:13:37;;;;;;;17.80;11.68;;;;;;;9.56;85.08;100330.15;1737272;82;21141;-75
2021/10/14 08:16:45;;;;;;;18.23;12.05;;;;;;;9.61;85.30;100339.20;1715817;82;21161;-75
2021/10/14 08:19:53;;;;;;;19.07;12.88;;;;;;;9.66;85.21;100340.91;1698476;82;21867;-75
2021/10/14 08:22:58;;;;;;;20.08;12.03;;;;;;;9.62;84.56;100341.75;1715009;82;21185;-75
2021/10/14 08:26:04;;;;;;;20.32;14.50;;;;;;;9.59;85.03;100352.16;1711139;84;21520;-75
2021/10/14 08:29:09;;;;;;;21.77;14.50;;;;;;;9.65;85.55;100362.42;1711712;84;21901;-75
2021/10/14 08:32:15;;;;;;;19.92;13.58;;;;;;;9.74;85.67;100361.41;1712467;84;21347;-76
2021/10/14 08:35:21;;;;;;;23.05;13.68;;;;;;;9.81;84.84;100366.52;1711264;84;22713;-75
2021/10/14 08:38:27;;;;;;;20.90;13.93;;;;;;;9.86;84.50;100369.59;1710697;84;21360;-75
2021/10/14 08:41:33;;;;;;;21.23;14.40;;;;;;;9.90;83.92;100372.33;1691321;85;21316;-75
2021/10/14 08:44:39;;;;;;;19.23;13.45;;;;;;;9.93;83.25;100373.36;1691332;85;21331;-75
2021/10/14 08:47:46;;;;;;;20.45;14.20;;;;;;;9.96;82.97;100370.78;1690116;85;21323;-75
2021/10/14 08:50:54;;;;;;;18.67;12.50;;;;;;;10.02;82.93;100389.73;1691288;85;21319;-75
2021/10/14 08:54:00;;;;;;;19.48;13.18;;;;;;;10.09;82.39;100389.41;1691323;85;21319;-75
2021/10/14 08:57:06;;;;;;;24.10;15.65;;;;;;;10.15;81.39;100399.13;1690137;85;21360;-74
2021/10/14 09:00:13;;;;;;;25.37;15.83;;;;;;;10.16;81.19;100406.81;1675372;85;21966;-74
2021/10/14 09:03:40;;;;;;;24.75;15.85;;;;;;;10.20;80.83;100410.40;1691398;85;21327;-74
2021/10/14 09:06:47;;;;;;;28.67;16.40;;;;;;;10.28;80.96;100408.73;1691446;85;21315;-74
2021/10/14 09:09:54;;;;;;;26.20;16.15;;;;;;;10.31;80.42;100402.42;1690717;85;21927;-74
2021/10/14 09:12:59;;;;;;;20.97;15.25;;;;;;;10.33;80.63;100420.00;1691439;85;21189;-74
2021/10/14 09:16:16;;;;;;;21.02;15.80;;;;;;;10.32;79.84;100420.52;1691396;85;21319;-75
2021/10/14 09:19:35;;;;;;;20.17;14.65;;;;;;;10.28;79.22;100428.72;1679013;84;21785;-75
2021/10/14 09:22:37;;;;;;;21.52;14.33;;;;;;;10.26;78.75;100438.11;1691732;85;21653;-75
2021/10/14 09:25:59;;;;;;;19.30;13.60;;;;;;;10.26;79.13;100440.36;1690533;85;21276;-75
2021/10/14 09:29:18;;;;;;;23.80;16.65;;;;;;;10.29;79.61;100445.46;1691164;85;21808;-75
2021/10/14 09:32:25;;;;;;;23.75;16.20;;;;;;;10.30;79.32;100452.62;1691451;85;21316;-74
2021/10/14 09:35:34;;;;;;;33.30;16.75;;;;;;;10.36;79.32;100446.50;1691392;85;22559;-74
2021/10/14 09:38:40;;;;;;;24.95;16.07;;;;;;;10.46;78.35;100444.44;1691395;85;22169;-74
2021/10/14 09:41:48;;;;;;;22.73;14.73;;;;;;;10.53;77.85;100443.22;1681155;84;21336;-74
2021/10/14 09:44:55;;;;;;;24.37;16.35;;;;;;;10.57;78.22;100456.05;1686768;83;21306;-75
2021/10/14 09:48:16;;;;;;;25.08;14.98;;;;;;;10.60;78.35;100457.08;1696236;83;21882;-75
2021/10/14 09:51:22;;;;;;;23.85;15.20;;;;;;;10.64;77.53;100465.28;1743475;81;21291;-75
2021/10/14 09:54:29;;;;;;;21.85;14.70;;;;;;;10.57;77.17;100458.78;1740739;82;21191;-76
2021/10/14 09:57:34;;;;;;;23.87;13.62;;;;;;;10.55;77.08;100463.06;1740891;82;21746;-75
2021/10/14 10:00:40;;;;;;;23.65;15.60;;;;;;;10.56;75.62;100466.66;1739770;82;21908;-75
2021/10/14 10:03:47;;;;;;;29.10;13.85;;;;;;;10.62;75.20;100478.26;1740687;82;21187;-75
2021/10/14 10:06:53;;;;;;;19.05;12.70;;;;;;;10.71;75.17;100494.48;1721038;82;21305;-75
2021/10/14 10:10:01;;;;;;;18.62;12.73;;;;;;;10.78;74.91;100493.30;1718814;82;21357;-75
2021/10/14 10:13:08;;;;;;;18.70;12.93;;;;;;;10.82;73.75;100501.52;1740682;82;21191;-75
2021/10/14 10:16:25;;;;;;;21.10;14.03;;;;;;;10.81;73.82;100502.52;1739412;82;21175;-75
2021/10/14 10:19:53;;;;;;;23.20;13.88;;;;;;;10.87;74.07;100507.31;1740839;82;21294;-74
2021/10/14 10:22:58;;;;;;;19.02;12.05;;;;;;;11.01;74.52;100508.48;1740883;82;21191;-74
2021/10/14 10:26:05;;;;;;;17.62;12.93;;;;;;;11.17;73.21;100507.06;1739658;82;21753;-75
2021/10/14 10:29:24;;;;;;;19.25;13.88;;;;;;;11.28;72.17;100507.71;1740853;82;21726;-75
2021/10/14 10:32:29;;;;;;;19.65;13.65;;;;;;;11.31;71.98;100499.16;1740737;82;21814;-75
2021/10/14 10:35:54;;;;;;;19.57;12.50;;;;;;;11.38;70.69;100506.47;1740691;82;21234;-76
2021/10/14 10:38:59;;;;;;;19.27;12.58;;;;;;;11.48;71.01;100515.36;1739350;82;21289;-76
2021/10/14 10:42:23;;;;;;;19.35;11.70;;;;;;;11.59;70.10;100501.78;1743808;82;21320;-76
2021/10/14 10:45:31;;;;;;;16.42;11.85;;;;;;;11.71;69.31;100515.92;1729950;82;21786;-76
2021/10/14 10:48:45;;;;;;;13.53;9.80;;;;;;;11.85;69.62;100520.67;1748854;82;21309;-76
2021/10/14 10:51:51;;;;;;;16.00;9.90;;;;;;;12.00;66.37;100528.50;1711628;84;21349;-76
2021/10/14 10:54:58;;;;;;;13.83;9.48;;;;;;;12.03;65.91;100534.97;1712769;84;21311;-76
2021/10/14 10:58:07;;;;;;;20.30;10.78;;;;;;;12.03;65.52;100545.08;1704105;84;21342;-76
2021/10/14 11:01:11;;;;;;;15.30;9.65;;;;;;;12.02;65.42;100551.09;1704016;84;21356;-75
2021/10/14 11:04:18;;;;;;;15.03;9.48;;;;;;;12.00;65.65;100544.94;1712749;84;21314;-76
2021/10/14 11:07:23;;;;;;;13.80;8.78;;;;;;;12.03;66.70;100540.45;1677324;84;21349;-75
2021/10/14 11:10:37;;;;;;;12.55;7.60;;;;;;;12.06;65.49;100556.22;1705103;84;21196;-76
2021/10/14 11:13:45;;;;;;;12.82;9.85;;;;;;;12.05;64.98;100560.00;1711485;84;21192;-76
2021/10/14 11:16:52;;;;;;;11.93;9.25;;;;;;;12.02;65.27;100568.91;1697187;84;21207;-76
2021/10/14 11:20:02;;;;;;;12.78;8.08;;;;;;;12.03;65.58;100561.02;1712695;84;22023;-76
2021/10/14 11:23:15;;;;;;;14.25;8.53;;;;;;;12.11;65.95;100568.87;1696782;84;21324;-76
2021/10/14 11:26:39;;;;;;;17.85;9.00;;;;;;;12.14;65.20;100573.97;1726096;83;21319;-76
2021/10/14 11:29:47;;;;;;;13.72;8.93;;;;;;;12.09;65.06;100586.00;1730641;83;21852;-75
2021/10/14 11:33:09;;;;;;;12.13;7.90;;;;;;;12.12;65.64;100597.98;1726619;83;21358;-75
2021/10/14 11:36:28;;;;;;;11.80;9.23;;;;;;;12.20;64.47;100593.84;1708858;83;21233;-75
2021/10/14 11:39:43;;;;;;;15.23;9.23;;;;;;;12.20;64.36;100598.80;1733689;83;21328;-75
2021/10/14 11:42:48;;;;;;;11.48;8.50;;;;;;;12.21;64.21;100612.00;1731709;83;21229;-76
2021/10/14 11:45:54;;;;;;;14.95;9.83;;;;;;;12.27;64.53;100615.38;1733893;83;21305;-76
2021/10/14 11:49:06;;;;;;;17.62;11.05;;;;;;;12.35;63.72;100618.09;1732561;82;21205;-76
2021/10/14 11:52:21;;;;;;;13.65;10.28;;;;;;;12.40;63.59;100614.28;1733506;83;21347;-76
2021/10/14 12:05:58;;;;;;;13.62;10.43;;;;;;;12.63;63.99;100643.13;1815624;79;22762;-75
2021/10/14 12:09:03;;;;;;;13.58;9.48;;;;;;;12.54;64.41;100641.46;1793448;80;21226;-75
2021/10/14 12:12:11;;;;;;;15.23;10.80;;;;;;;12.54;64.59;100640.09;1834265;78;21289;-75
2021/10/14 12:15:22;;;;;;;20.80;12.75;;;;;;;12.50;64.50;100643.70;1834253;77;21175;-76
2021/10/14 12:18:38;;;;;;;16.80;11.93;;;;;;;12.46;64.77;100652.48;1833948;78;21290;-76
2021/10/14 12:21:45;;;;;;;16.00;10.28;;;;;;;12.40;65.27;100659.55;1831858;78;21286;-75
2021/10/14 12:25:12;;;;;;;23.07;12.40;;;;;;;12.35;64.93;100644.67;1832291;78;21322;-75
2021/10/14 12:28:23;;;;;;;18.82;12.82;;;;;;;12.35;63.04;100652.89;1832334;78;21176;-75
2021/10/14 12:31:29;;;;;;;13.45;9.83;;;;;;;12.39;63.01;100653.73;1833440;78;21761;-75
2021/10/14 12:34:33;;;;;;;17.05;12.90;;;;;;;12.41;62.21;100654.39;1833517;78;21345;-75
2021/10/14 12:37:41;;;;;;;18.75;12.98;;;;;;;12.39;61.47;100649.61;1832746;78;21714;-75
2021/10/14 12:40:49;;;;;;;18.62;13.30;;;;;;;12.34;61.53;100656.68;1832615;78;21344;-76
2021/10/14 12:44:00;;;;;;;21.70;13.65;;;;;;;12.28;62.16;100663.74;1832351;78;21880;-76
2021/10/14 12:47:06;;;;;;;23.30;15.53;;;;;;;12.22;62.69;100665.80;1833430;78;21306;-76
2021/10/14 12:50:15;;;;;;;21.17;13.58;;;;;;;12.16;63.66;100666.01;1819862;78;21389;-76
2021/10/14 12:53:21;;;;;;;23.15;14.05;;;;;;;12.11;64.25;100664.31;1830369;77;21356;-76
2021/10/14 12:56:27;;;;;;;20.65;13.58;;;;;;;12.08;64.85;100681.11;1834039;78;21325;-75
2021/10/14 12:59:40;;;;;;;16.42;10.80;;;;;;;12.03;64.54;100684.91;1834192;78;21278;-75
2021/10/14 13:02:50;;;;;;;17.55;11.22;;;;;;;11.93;64.39;100675.52;1801499;79;21180;-76
2021/10/14 13:05:55;;;;;;;16.02;11.97;;;;;;;11.81;63.65;100676.91;1804515;78;21350;-75
2021/10/14 13:09:03;;;;;;;21.75;11.78;;;;;;;11.78;63.97;100679.98;1809832;79;21290;-75
2021/10/14 13:12:09;;;;;;;16.27;12.00;;;;;;;11.81;64.17;100679.65;1808983;79;21184;-75
2021/10/14 13:15:15;;;;;;;22.52;12.53;;;;;;;11.89;63.75;100671.94;1809372;79;21365;-75
2021/10/14 13:18:20;;;;;;;16.00;10.72;;;;;;;11.94;63.00;100689.55;1793960;79;21183;-75
2021/10/14 13:21:25;;;;;;;17.48;11.73;;;;;;;11.91;63.31;100689.92;1777639;80;21973;-75
2021/10/14 13:24:31;;;;;;;15.78;10.23;;;;;;;11.82;62.84;100699.20;1776520;80;21835;-75
2021/10/14 13:27:36;;;;;;;26.57;12.30;;;;;;;11.73;62.99;100705.70;1788568;79;21349;-75
2021/10/14 13:30:42;;;;;;;15.08;9.75;;;;;;;11.64;62.94;100706.22;1805724;79;21287;-75
2021/10/14 13:33:51;;;;;;;17.82;10.48;;;;;;;11.58;63.22;100706.07;1776205;80;21198;-76
2021/10/14 13:36:56;;;;;;;16.35;10.80;;;;;;;11.50;63.80;100708.30;1776935;80;21231;-76
2021/10/14 13:40:02;;;;;;;15.30;9.68;;;;;;;11.44;64.05;100708.47;1777546;80;21307;-76
2021/10/14 13:43:15;;;;;;;16.20;10.38;;;;;;;11.42;64.00;100709.14;1777611;80;21180;-76
2021/10/14 13:46:15;;;;;;;14.95;8.85;;;;;;;11.36;63.78;100700.77;1776822;80;21349;-76
2021/10/14 13:49:22;;;;;;;14.75;9.00;;;;;;;11.33;63.43;100723.86;1777867;80;21326;-74
2021/10/14 13:52:28;;;;;;;15.95;9.53;;;;;;;11.30;63.58;100716.02;1776838;80;21349;-75
2021/10/14 13:55:35;;;;;;;16.02;9.83;;;;;;;11.29;63.35;100707.95;1777350;80;21325;-75
2021/10/14 13:58:40;;;;;;;13.90;9.88;;;;;;;11.26;63.44;100708.64;1778150;80;21287;-75
2021/10/14 14:01:46;;;;;;;13.98;8.95;;;;;;;11.21;63.63;100712.41;1776911;80;21251;-75
2021/10/14 14:04:52;;;;;;;14.35;9.43;;;;;;;11.18;63.61;100716.84;1759759;80;21314;-76
2021/10/14 14:07:58;;;;;;;13.13;9.48;;;;;;;11.17;63.86;100717.03;1776192;79;21307;-76
2021/10/14 14:11:05;;;;;;;14.30;9.35;;;;;;;11.16;63.98;100723.54;1776493;80;21234;-75
2021/10/14 14:14:11;;;;;;;14.40;8.63;;;;;;;11.14;64.06;100733.78;1778124;80;21302;-76
2021/10/14 14:17:17;;;;;;;12.47;8.73;;;;;;;11.09;64.06;100731.55;1776698;80;21302;-75
2021/10/14 14:20:23;;;;;;;15.48;8.55;;;;;;;11.06;64.24;100729.69;1778063;80;21302;-75
2021/10/14 14:23:28;;;;;;;13.85;8.38;;;;;;;11.02;64.35;100731.05;1778075;80;21530;-76
2021/10/14 14:26:34;;;;;;;13.62;8.15;;;;;;;10.98;64.32;100731.38;1777398;80;21362;-76
2021/10/14 14:29:41;;;;;;;14.47;8.68;;;;;;;10.94;64.46;100734.11;1778220;80;21294;-76
2021/10/14 14:32:46;;;;;;;14.63;8.78;;;;;;;10.89;64.73;100740.59;1778223;80;21318;-76